Time;durP1;ratioP1;P1;durP2;ratioP2;P2;SDS_P1;SDS_P2;PMS_P1;PMS_P2;Temp;Humidity;BMP_temperature;BMP_pressure;BME280_temperature;BME280_humidity;BME280_pressure;Samples;Min_cycle;Max_cycle;Signal;HPM_P1;HPM_P2
2022/05/14 00:04:46;;;;;;;;;;;;;;;11.54;68.66;101968.13;10500346;28;19929;-79
2022/05/14 00:09:47;;;;;;;;;;;;;;;11.24;69.81;101964.38;10474170;28;19920;-79
2022/05/14 00:14:49;;;;;;;;;;;;;;;11.17;70.38;101966.66;10497525;28;20291;-79
2022/05/14 00:19:50;;;;;;;;;;;;;;;11.28;70.08;101965.41;10496754;28;19924;-79
2022/05/14 00:24:52;;;;;;;;;;;;;;;11.16;70.35;101959.72;10495486;28;19920;-79
2022/05/14 00:29:55;;;;;;;;;;;;;;;10.99;70.92;101964.22;10496051;28;19991;-79
2022/05/14 00:34:56;;;;;;;;;;;;;;;10.78;71.63;101968.53;10496414;28;19934;-79
2022/05/14 00:39:59;;;;;;;;;;;;;;;10.89;72.09;101965.53;10495615;28;19921;-79
2022/05/14 00:45:05;;;;;;;;;;;;;;;10.89;71.78;101970.69;10494519;28;19924;-78
2022/05/14 00:50:17;;;;;;;;;;;;;;;11.10;71.09;101960.34;10459184;28;19954;-79
2022/05/14 00:55:19;;;;;;;;;;;;;;;11.50;69.49;101967.13;10495536;28;19924;-79
2022/05/14 01:00:22;;;;;;;;;;;;;;;11.39;69.25;101961.53;10483109;28;19971;-78
2022/05/14 01:05:24;;;;;;;;;;;;;;;11.55;68.61;101954.41;10494326;28;19935;-79
2022/05/14 01:10:29;;;;;;;;;;;;;;;11.44;68.69;101956.56;10493275;28;20501;-80
2022/05/14 01:15:40;;;;;;;;;;;;;;;11.38;68.77;101951.16;10509940;28;20403;-79
2022/05/14 01:20:42;;;;;;;;;;;;;;;11.65;67.20;101956.53;10492173;28;19920;-79
2022/05/14 01:31:10;;;;;;;;;;;;;;;12.09;66.30;101953.00;10509740;28;19920;-79
2022/05/14 01:36:12;;;;;;;;;;;;;;;12.10;66.81;101957.34;10492796;28;20034;-79
2022/05/14 01:41:14;;;;;;;;;;;;;;;12.21;66.88;101963.75;10492485;28;20333;-79
2022/05/14 01:46:16;;;;;;;;;;;;;;;12.08;67.64;101957.25;10492137;28;20288;-79
2022/05/14 01:51:18;;;;;;;;;;;;;;;12.09;67.98;101963.31;10475822;28;19974;-79
2022/05/14 01:56:21;;;;;;;;;;;;;;;12.00;68.48;101959.56;10484922;28;19925;-79
2022/05/14 02:01:31;;;;;;;;;;;;;;;11.85;68.52;101965.00;10492015;28;19931;-78
2022/05/14 02:06:34;;;;;;;;;;;;;;;11.77;68.61;101961.25;10489844;28;20375;-78
2022/05/14 02:11:37;;;;;;;;;;;;;;;11.49;69.34;101951.59;10491080;28;20355;-78
2022/05/14 02:17:12;;;;;;;;;;;;;;;11.57;68.82;101953.63;10486544;28;19921;-79
2022/05/14 02:22:14;;;;;;;;;;;;;;;11.69;68.26;101960.97;10492938;28;19967;-79
2022/05/14 02:27:15;;;;;;;;;;;;;;;11.78;68.56;101962.13;10487839;28;20369;-79
2022/05/14 02:32:17;;;;;;;;;;;;;;;11.50;68.92;101954.22;10495634;28;19939;-79
2022/05/14 02:37:20;;;;;;;;;;;;;;;11.49;68.95;101959.31;10497214;28;19920;-79
2022/05/14 02:42:22;;;;;;;;;;;;;;;11.60;68.71;101958.03;10534047;28;19927;-79
2022/05/14 02:47:24;;;;;;;;;;;;;;;11.73;67.67;101957.66;10516430;28;19982;-80
2022/05/14 02:52:25;;;;;;;;;;;;;;;11.58;68.15;101957.97;10532549;28;19966;-79
2022/05/14 02:57:27;;;;;;;;;;;;;;;11.52;68.01;101965.47;10507185;28;19955;-79
2022/05/14 03:02:29;;;;;;;;;;;;;;;11.49;68.25;101964.47;10514681;28;19929;-79
2022/05/14 03:07:31;;;;;;;;;;;;;;;11.30;68.75;101956.00;10499153;28;19920;-79
2022/05/14 03:12:34;;;;;;;;;;;;;;;11.41;67.92;101972.81;10513400;28;19924;-80
2022/05/14 03:17:35;;;;;;;;;;;;;;;11.23;68.82;101972.06;10514787;28;19924;-80
2022/05/14 03:22:37;;;;;;;;;;;;;;;11.15;68.83;101968.28;10514782;28;19928;-79
2022/05/14 03:27:39;;;;;;;;;;;;;;;11.23;68.48;101972.06;10494465;28;20015;-79
2022/05/14 03:32:40;;;;;;;;;;;;;;;11.22;68.55;101972.88;10515010;28;19920;-80
2022/05/14 03:37:42;;;;;;;;;;;;;;;10.99;69.70;101966.78;10514771;28;20298;-80
2022/05/14 03:42:45;;;;;;;;;;;;;;;10.94;70.25;101972.66;10519038;28;20016;-80
2022/05/14 03:47:47;;;;;;;;;;;;;;;11.02;69.96;101978.09;10507242;28;20358;-80
2022/05/14 03:52:49;;;;;;;;;;;;;;;10.69;71.50;101975.00;10528365;28;19973;-80
2022/05/14 03:57:51;;;;;;;;;;;;;;;10.65;71.96;101984.28;10493066;28;19932;-79
2022/05/14 04:02:53;;;;;;;;;;;;;;;10.56;72.24;101987.38;10494771;28;19920;-80
2022/05/14 04:07:55;;;;;;;;;;;;;;;10.75;71.57;101991.63;10509875;28;19924;-80
2022/05/14 04:12:58;;;;;;;;;;;;;;;10.97;70.69;101989.94;10511033;28;19920;-80
2022/05/14 04:18:01;;;;;;;;;;;;;;;10.91;71.30;101989.66;10508693;28;19920;-80
2022/05/14 04:23:03;;;;;;;;;;;;;;;11.27;69.88;102005.78;10508291;28;20296;-80
2022/05/14 04:28:07;;;;;;;;;;;;;;;10.86;71.64;102011.78;10509872;28;19924;-80
2022/05/14 04:33:13;;;;;;;;;;;;;;;10.82;71.93;102002.19;10511266;28;19920;-79
2022/05/14 04:38:14;;;;;;;;;;;;;;;10.79;72.23;102021.84;10508831;28;19928;-79
2022/05/14 04:43:16;;;;;;;;;;;;;;;11.04;71.46;102011.69;10524111;28;20280;-79
2022/05/14 04:48:18;;;;;;;;;;;;;;;11.46;69.73;102003.06;10523210;28;19948;-79
2022/05/14 04:53:19;;;;;;;;;;;;;;;11.45;70.11;102011.63;10508266;28;19931;-79
2022/05/14 04:58:22;;;;;;;;;;;;;;;11.40;70.75;102014.91;10513694;28;19924;-78
2022/05/14 05:03:24;;;;;;;;;;;;;;;11.54;70.59;102019.72;10488198;28;19927;-79
2022/05/14 05:08:32;;;;;;;;;;;;;;;11.39;71.22;102020.88;10489034;28;20430;-78
2022/05/14 05:13:35;;;;;;;;;;;;;;;11.40;71.52;102022.66;10485990;28;19942;-79
2022/05/14 05:18:37;;;;;;;;;;;;;;;11.80;70.03;102030.22;10517685;28;19931;-78
2022/05/14 05:23:39;;;;;;;;;;;;;;;11.64;70.28;102036.47;10501027;28;19921;-79
2022/05/14 05:28:41;;;;;;;;;;;;;;;12.14;69.33;102039.28;10502812;28;19942;-79
2022/05/14 05:33:43;;;;;;;;;;;;;;;11.95;69.71;102043.69;10503979;28;19924;-79
2022/05/14 05:38:47;;;;;;;;;;;;;;;11.89;69.83;102048.63;10515606;28;19924;-79
2022/05/14 05:43:48;;;;;;;;;;;;;;;12.09;70.14;102058.91;10501251;28;19928;-78
2022/05/14 05:48:50;;;;;;;;;;;;;;;12.57;68.56;102066.69;10496631;28;19981;-79
2022/05/14 05:59:13;;;;;;;;;;;;;;;12.84;68.45;102065.94;10463211;28;19974;-79
2022/05/14 06:04:14;;;;;;;;;;;;;;;12.92;67.61;102074.81;10488437;28;19929;-79
2022/05/14 06:09:18;;;;;;;;;;;;;;;13.12;67.94;102078.09;10482304;28;19931;-79
2022/05/14 06:14:21;;;;;;;;;;;;;;;13.36;68.62;102078.91;10501155;28;20294;-79
2022/05/14 06:19:26;;;;;;;;;;;;;;;13.54;67.25;102076.94;10498704;28;19924;-78
2022/05/14 06:24:27;;;;;;;;;;;;;;;13.62;67.41;102070.31;10516726;28;20441;-77
2022/05/14 06:29:31;;;;;;;;;;;;;;;13.87;66.73;102071.09;10517799;28;19920;-77
2022/05/14 06:34:32;;;;;;;;;;;;;;;14.08;67.18;102075.16;10508595;28;19950;-77
2022/05/14 06:39:38;;;;;;;;;;;;;;;14.21;65.91;102087.63;10498683;28;19920;-77
2022/05/14 06:44:40;;;;;;;;;;;;;;;14.33;65.35;102088.84;10503426;28;19981;-78
2022/05/14 06:49:41;;;;;;;;;;;;;;;14.76;65.12;102082.31;10499827;28;19936;-76
2022/05/14 06:54:45;;;;;;;;;;;;;;;15.55;63.61;102087.81;10493785;28;19928;-76
2022/05/14 06:59:49;;;;;;;;;;;;;;;15.73;62.01;102086.50;10492406;28;19930;-79
2022/05/14 07:10:24;;;;;;;;;;;;;;;16.79;60.04;102087.88;10442703;28;20033;-78
2022/05/14 07:15:26;;;;;;;;;;;;;;;17.11;59.09;102092.00;10495004;28;19920;-78
2022/05/14 07:20:27;;;;;;;;;;;;;;;17.24;58.94;102085.25;10499272;28;19995;-80
2022/05/14 07:25:29;;;;;;;;;;;;;;;17.37;58.29;102095.03;10507775;28;19932;-80
2022/05/14 07:30:31;;;;;;;;;;;;;;;18.26;56.10;102079.00;10503443;28;19930;-79
2022/05/14 07:35:33;;;;;;;;;;;;;;;18.15;56.88;102088.38;10504951;28;19920;-79
2022/05/14 07:40:36;;;;;;;;;;;;;;;18.04;56.69;102085.63;10503436;28;20360;-80
2022/05/14 07:45:41;;;;;;;;;;;;;;;18.39;56.54;102086.09;10505878;28;20379;-79
2022/05/14 07:50:44;;;;;;;;;;;;;;;19.38;53.65;102090.63;10479085;28;19982;-79
2022/05/14 07:55:47;;;;;;;;;;;;;;;18.60;54.40;102100.25;10504310;28;19921;-78
2022/05/14 08:00:49;;;;;;;;;;;;;;;18.30;55.83;102101.63;10514730;28;19931;-80
2022/05/14 08:05:51;;;;;;;;;;;;;;;18.75;53.33;102111.72;10512372;28;19924;-80
2022/05/14 08:10:53;;;;;;;;;;;;;;;19.36;51.54;102102.78;10506771;28;19920;-78
2022/05/14 08:15:57;;;;;;;;;;;;;;;19.18;51.92;102099.13;10514777;28;19947;-80
2022/05/14 08:24:29;;;;;;;;;;;;;;;18.24;54.49;102096.34;10505240;28;19942;-80
2022/05/14 08:26:23;;;;;;;;;;;;;;;20.01;50.18;102092.81;10468333;28;20422;-79
2022/05/14 08:31:25;;;;;;;;;;;;;;;19.21;52.50;102099.19;10508648;28;19924;-80
2022/05/14 08:36:27;;;;;;;;;;;;;;;19.85;49.39;102094.47;10502864;28;19964;-79
2022/05/14 08:41:29;;;;;;;;;;;;;;;20.84;47.42;102101.03;10508217;28;19920;-80
2022/05/14 08:46:32;;;;;;;;;;;;;;;21.86;47.78;102087.06;10500461;28;19928;-80
2022/05/14 08:51:36;;;;;;;;;;;;;;;21.15;45.90;102095.81;10507347;28;19924;-79
2022/05/14 08:56:44;;;;;;;;;;;;;;;21.68;45.02;102095.84;10498698;28;19920;-79
2022/05/14 09:01:48;;;;;;;;;;;;;;;19.99;47.25;102091.94;10497034;28;20344;-79
2022/05/14 09:06:50;;;;;;;;;;;;;;;21.33;46.41;102088.84;10512172;28;19920;-79
2022/05/14 09:11:55;;;;;;;;;;;;;;;20.75;45.31;102088.78;10504642;28;19924;-79
2022/05/14 09:17:07;;;;;;;;;;;;;;;20.98;45.13;102093.19;10506326;28;19952;-79
2022/05/14 09:22:11;;;;;;;;;;;;;;;20.81;46.11;102089.66;10503801;28;19929;-79
2022/05/14 09:27:20;;;;;;;;;;;;;;;20.50;46.73;102087.81;10508524;28;20371;-79
2022/05/14 09:32:22;;;;;;;;;;;;;;;21.43;47.35;102081.84;10501959;28;19927;-79
2022/05/14 09:37:24;;;;;;;;;;;;;;;22.45;42.83;102082.47;10518966;28;20406;-79
2022/05/14 09:42:29;;;;;;;;;;;;;;;21.26;45.27;102084.50;10505365;28;20288;-79
2022/05/14 09:47:38;;;;;;;;;;;;;;;20.26;46.64;102081.59;10506747;28;19928;-78
2022/05/14 09:52:40;;;;;;;;;;;;;;;21.49;45.58;102090.56;10515835;28;20383;-79
2022/05/14 09:57:57;;;;;;;;;;;;;;;22.30;45.24;102082.56;10492587;28;19928;-79
2022/05/14 10:03:19;;;;;;;;;;;;;;;21.60;46.00;102081.88;10492501;28;19967;-79
2022/05/14 10:08:26;;;;;;;;;;;;;;;20.88;48.40;102089.69;10497911;28;19967;-78
2022/05/14 10:13:47;;;;;;;;;;;;;;;21.42;46.82;102088.81;10495530;28;20176;-79
2022/05/14 10:18:58;;;;;;;;;;;;;;;19.89;48.48;102097.13;10480669;28;19928;-79
2022/05/14 10:29:45;;;;;;;;;;;;;;;21.92;45.20;102084.41;10468582;28;19921;-78
2022/05/14 10:34:46;;;;;;;;;;;;;;;21.73;44.11;102088.81;10502356;28;20372;-78
2022/05/14 10:39:57;;;;;;;;;;;;;;;22.50;42.75;102085.97;10479691;28;19946;-79
2022/05/14 10:45:03;;;;;;;;;;;;;;;24.02;43.39;102081.25;10487705;28;20296;-79
2022/05/14 10:50:09;;;;;;;;;;;;;;;21.31;44.22;102093.22;10488535;28;20353;-79
2022/05/14 10:55:18;;;;;;;;;;;;;;;21.73;43.31;102078.34;10479596;28;19931;-79
2022/05/14 11:00:29;;;;;;;;;;;;;;;21.44;42.51;102083.59;10507678;28;19928;-78
2022/05/14 11:05:31;;;;;;;;;;;;;;;22.66;41.85;102086.75;10502885;28;19928;-79
2022/05/14 11:10:36;;;;;;;;;;;;;;;22.40;42.76;102092.16;10482877;28;19928;-79
2022/05/14 11:15:39;;;;;;;;;;;;;;;21.49;42.19;102092.31;10498818;28;19920;-78
2022/05/14 11:20:52;;;;;;;;;;;;;;;21.49;41.73;102097.56;10499250;28;19931;-79
2022/05/14 11:26:10;;;;;;;;;;;;;;;22.03;42.56;102087.91;10498206;28;19947;-78
2022/05/14 11:31:21;;;;;;;;;;;;;;;22.39;38.97;102093.03;10498030;28;19924;-76
2022/05/14 11:36:24;;;;;;;;;;;;;;;21.81;41.02;102092.31;10499454;28;20413;-78
2022/05/14 11:41:28;;;;;;;;;;;;;;;22.05;42.26;102087.00;10501869;28;19956;-80
2022/05/14 11:46:41;;;;;;;;;;;;;;;22.96;40.74;102089.22;10503466;28;19924;-80
2022/05/14 11:52:06;;;;;;;;;;;;;;;22.90;43.43;102089.22;10501352;28;19920;-81
2022/05/14 11:57:14;;;;;;;;;;;;;;;22.18;44.50;102079.09;10500141;28;19921;-81
2022/05/14 12:02:34;;;;;;;;;;;;;;;21.94;41.88;102085.28;10496966;28;20019;-78
2022/05/14 12:07:41;;;;;;;;;;;;;;;22.99;40.21;102083.91;10501550;28;19925;-78
2022/05/14 12:19:22;;;;;;;;;;;;;;;24.38;39.10;102074.69;10501820;28;20359;-78
2022/05/14 12:24:32;;;;;;;;;;;;;;;23.91;41.59;102076.09;10502043;28;19920;-78
2022/05/14 12:29:34;;;;;;;;;;;;;;;23.98;37.53;102071.69;10501915;28;19921;-79
2022/05/14 12:34:37;;;;;;;;;;;;;;;23.18;38.45;102078.56;10502326;28;19920;-77
2022/05/14 12:39:41;;;;;;;;;;;;;;;24.46;36.70;102071.94;10501670;28;19927;-78
2022/05/14 12:44:47;;;;;;;;;;;;;;;24.53;37.98;102075.38;10501170;28;19967;-79
2022/05/14 12:49:49;;;;;;;;;;;;;;;22.44;39.03;102085.13;10500831;28;19966;-78
2022/05/14 12:55:17;;;;;;;;;;;;;;;22.10;40.33;102078.22;10502321;28;19924;-78
2022/05/14 13:00:20;;;;;;;;;;;;;;;21.17;41.36;102075.75;10500682;28;19927;-77
2022/05/14 13:05:26;;;;;;;;;;;;;;;22.40;42.31;102073.75;10500860;28;19921;-78
2022/05/14 13:10:29;;;;;;;;;;;;;;;22.42;40.93;102071.13;10500787;28;19920;-79
2022/05/14 13:15:32;;;;;;;;;;;;;;;23.24;40.89;102062.72;10498735;28;19993;-78
2022/05/14 13:20:34;;;;;;;;;;;;;;;23.57;40.37;102055.41;10500228;28;19974;-79
2022/05/14 13:25:36;;;;;;;;;;;;;;;22.88;39.72;102062.13;10482046;28;19974;-79
2022/05/14 13:30:38;;;;;;;;;;;;;;;22.30;39.37;102051.06;10499489;28;19920;-79
2022/05/14 13:41:00;;;;;;;;;;;;;;;23.10;38.35;102032.16;10498791;28;19920;-79
2022/05/14 13:46:03;;;;;;;;;;;;;;;22.74;41.77;102030.66;10499291;28;19924;-79
2022/05/14 13:51:25;;;;;;;;;;;;;;;22.26;40.02;102039.69;10497480;28;20019;-79
2022/05/14 13:56:31;;;;;;;;;;;;;;;22.47;39.40;102038.72;10481567;28;19927;-79
2022/05/14 14:01:35;;;;;;;;;;;;;;;22.87;39.18;102026.22;10497229;28;19920;-79
2022/05/14 14:06:37;;;;;;;;;;;;;;;22.59;39.94;102015.91;10497366;28;20375;-79
2022/05/14 14:11:44;;;;;;;;;;;;;;;23.50;39.05;102020.41;10498326;28;20001;-79
2022/05/14 14:16:46;;;;;;;;;;;;;;;23.71;34.86;102011.44;10513763;28;19942;-79
2022/05/14 14:21:48;;;;;;;;;;;;;;;23.47;36.02;102017.81;10499028;28;20390;-79
2022/05/14 14:26:51;;;;;;;;;;;;;;;23.38;38.55;102008.25;10498123;28;19930;-79
2022/05/14 14:31:52;;;;;;;;;;;;;;;23.18;39.01;102005.81;10503158;28;19974;-79
2022/05/14 14:36:54;;;;;;;;;;;;;;;22.84;38.54;102016.59;10502857;28;19927;-79
2022/05/14 14:41:55;;;;;;;;;;;;;;;22.63;37.30;102012.38;10501928;28;19924;-79
2022/05/14 14:46:58;;;;;;;;;;;;;;;22.67;38.79;102006.22;10503137;28;19966;-79
2022/05/14 14:51:59;;;;;;;;;;;;;;;22.53;38.94;102000.16;10501092;28;19921;-79
2022/05/14 14:57:01;;;;;;;;;;;;;;;22.38;38.93;102001.97;10489971;28;19929;-79
2022/05/14 15:02:06;;;;;;;;;;;;;;;22.41;39.34;102003.78;10459866;28;19920;-79
2022/05/14 15:07:14;;;;;;;;;;;;;;;22.80;38.88;101997.34;10500563;28;19928;-79
2022/05/14 15:12:20;;;;;;;;;;;;;;;22.99;38.27;101989.31;10517829;28;19924;-79
2022/05/14 15:17:21;;;;;;;;;;;;;;;22.80;37.53;101993.84;10501207;28;20437;-79
2022/05/14 15:22:25;;;;;;;;;;;;;;;22.79;38.12;101992.09;10517190;28;19924;-79
2022/05/14 15:27:26;;;;;;;;;;;;;;;22.69;39.43;101979.94;10502489;28;20295;-77
2022/05/14 15:32:28;;;;;;;;;;;;;;;23.05;36.15;101972.63;10519804;28;20268;-78
2022/05/14 15:37:30;;;;;;;;;;;;;;;22.68;36.82;101984.28;10502694;28;20344;-78
2022/05/14 15:42:35;;;;;;;;;;;;;;;22.49;35.55;101987.06;10501374;28;20387;-79
2022/05/14 15:47:42;;;;;;;;;;;;;;;22.16;36.61;101986.34;10502661;28;19990;-78
2022/05/14 15:52:45;;;;;;;;;;;;;;;21.87;37.33;101984.75;10502716;28;19920;-79
2022/05/14 15:57:47;;;;;;;;;;;;;;;22.15;36.11;101992.47;10482499;28;19921;-78
2022/05/14 16:02:50;;;;;;;;;;;;;;;21.92;38.08;101982.09;10465683;28;20338;-77
2022/05/14 16:07:52;;;;;;;;;;;;;;;21.80;37.85;101975.16;10465825;28;19978;-77
2022/05/14 16:18:13;;;;;;;;;;;;;;;21.64;38.37;101976.06;10468380;28;20368;-77
2022/05/14 16:23:15;;;;;;;;;;;;;;;21.41;39.37;101979.59;10470200;28;19924;-79
2022/05/14 16:28:17;;;;;;;;;;;;;;;21.55;40.14;101983.09;10506363;28;19966;-78
2022/05/14 16:33:18;;;;;;;;;;;;;;;21.83;39.19;101985.63;10503428;28;19924;-78
2022/05/14 16:38:20;;;;;;;;;;;;;;;22.06;38.90;101987.28;10502914;28;20394;-77
2022/05/14 16:43:22;;;;;;;;;;;;;;;21.90;37.12;101983.84;10519773;28;20349;-77
2022/05/14 16:48:23;;;;;;;;;;;;;;;21.63;37.16;101982.22;10500071;28;19924;-75
2022/05/14 16:53:25;;;;;;;;;;;;;;;21.69;38.36;101979.56;10497264;28;20302;-77
2022/05/14 16:58:28;;;;;;;;;;;;;;;21.81;38.75;101989.16;10498869;28;19920;-77
2022/05/14 17:03:32;;;;;;;;;;;;;;;21.63;38.41;101984.84;10477098;28;19924;-75
2022/05/14 17:08:33;;;;;;;;;;;;;;;21.55;37.20;101987.44;10459432;28;20360;-77
2022/05/14 17:13:55;;;;;;;;;;;;;;;21.63;37.11;101984.84;10458046;28;20319;-75
2022/05/14 17:19:00;;;;;;;;;;;;;;;21.49;38.18;101987.47;10501407;28;19921;-78
2022/05/14 17:24:02;;;;;;;;;;;;;;;21.40;38.58;101977.88;10501843;28;19982;-77
2022/05/14 17:29:04;;;;;;;;;;;;;;;21.51;38.05;101980.47;10502295;28;19982;-78
2022/05/14 17:34:06;;;;;;;;;;;;;;;21.31;37.29;101977.88;10502113;28;19920;-78
2022/05/14 17:44:48;;;;;;;;;;;;;;;21.35;38.01;101979.63;10460594;28;19974;-77
2022/05/14 17:49:51;;;;;;;;;;;;;;;21.07;38.67;101982.28;10473703;28;19921;-78
2022/05/14 17:54:52;;;;;;;;;;;;;;;20.87;39.66;101977.94;10464756;28;19929;-77
2022/05/14 17:59:54;;;;;;;;;;;;;;;20.69;40.30;101984.00;10492209;28;19929;-77
2022/05/14 18:04:55;;;;;;;;;;;;;;;20.61;39.23;101985.75;10518221;28;20363;-78
2022/05/14 18:09:57;;;;;;;;;;;;;;;20.40;39.56;101986.56;10498187;28;19924;-78
2022/05/14 18:14:59;;;;;;;;;;;;;;;20.35;40.79;101983.94;10500146;28;19920;-77
2022/05/14 18:20:00;;;;;;;;;;;;;;;20.29;40.77;101984.78;10498691;28;19985;-77
2022/05/14 18:25:10;;;;;;;;;;;;;;;20.11;41.24;101984.75;10516325;28;19974;-76
2022/05/14 18:30:19;;;;;;;;;;;;;;;19.76;41.21;101988.91;10500177;28;19931;-77
2022/05/14 18:35:23;;;;;;;;;;;;;;;19.72;41.84;101991.50;10500268;28;19947;-77
2022/05/14 18:40:27;;;;;;;;;;;;;;;19.59;42.47;101991.44;10502538;28;19924;-77
2022/05/14 18:45:28;;;;;;;;;;;;;;;19.38;42.64;101993.94;10511109;28;20429;-77
2022/05/14 18:50:30;;;;;;;;;;;;;;;19.25;43.27;101995.56;10531923;28;19920;-77
2022/05/14 18:55:31;;;;;;;;;;;;;;;18.95;44.63;102008.41;10518517;28;19926;-77
2022/05/14 19:00:33;;;;;;;;;;;;;;;18.68;45.19;102012.47;10520968;28;19925;-77
2022/05/14 19:10:55;;;;;;;;;;;;;;;18.60;45.91;102015.88;10480451;28;19920;-76
2022/05/14 19:15:56;;;;;;;;;;;;;;;18.18;47.46;102018.03;10483625;28;19921;-76
2022/05/14 19:20:59;;;;;;;;;;;;;;;18.20;48.00;102021.53;10485374;28;19920;-76
2022/05/14 19:26:02;;;;;;;;;;;;;;;17.98;47.29;102021.25;10462218;28;19959;-79
2022/05/14 19:31:05;;;;;;;;;;;;;;;17.49;50.93;102026.63;10490252;28;19963;-79
2022/05/14 19:36:10;;;;;;;;;;;;;;;17.06;53.70;102037.22;10499516;28;19963;-79
2022/05/14 19:41:15;;;;;;;;;;;;;;;16.99;52.39;102034.47;10496796;28;19924;-79
2022/05/14 19:46:18;;;;;;;;;;;;;;;16.86;53.14;102035.97;10499099;28;19970;-79
2022/05/14 19:51:20;;;;;;;;;;;;;;;16.61;53.74;102048.50;10498386;28;19951;-79
2022/05/14 19:56:22;;;;;;;;;;;;;;;16.36;54.20;102050.63;10491578;28;19942;-79
2022/05/14 20:01:25;;;;;;;;;;;;;;;16.45;52.67;102048.22;10456729;28;19929;-79
2022/05/14 20:06:26;;;;;;;;;;;;;;;16.27;53.86;102050.47;10473149;28;20024;-79
2022/05/14 20:11:30;;;;;;;;;;;;;;;16.28;53.18;102045.28;10481456;28;19924;-79
2022/05/14 20:21:51;;;;;;;;;;;;;;;15.58;55.69;102049.78;10498208;28;19982;-79
2022/05/14 20:26:53;;;;;;;;;;;;;;;15.70;53.61;102050.03;10497370;28;20346;-79
2022/05/14 20:31:55;;;;;;;;;;;;;;;15.67;54.25;102050.84;10512594;28;20353;-79
2022/05/14 20:36:57;;;;;;;;;;;;;;;15.28;56.73;102055.97;10497733;28;19943;-79
2022/05/14 20:41:58;;;;;;;;;;;;;;;14.79;59.30;102065.97;10492185;28;19928;-79
2022/05/14 20:47:00;;;;;;;;;;;;;;;14.40;60.51;102073.50;10479607;28;20342;-79
2022/05/14 20:52:01;;;;;;;;;;;;;;;14.47;59.19;102069.38;10492324;28;19924;-79
2022/05/14 20:57:03;;;;;;;;;;;;;;;14.01;61.03;102070.63;10492621;28;19929;-79
2022/05/14 21:02:05;;;;;;;;;;;;;;;13.93;60.69;102071.28;10493663;28;19944;-78
2022/05/14 21:07:06;;;;;;;;;;;;;;;14.09;60.26;102071.75;10494152;28;20039;-79
2022/05/14 21:12:08;;;;;;;;;;;;;;;14.17;59.77;102080.63;10491352;28;19935;-79
2022/05/14 21:17:10;;;;;;;;;;;;;;;14.01;59.84;102079.25;10493958;28;19920;-79
2022/05/14 21:22:11;;;;;;;;;;;;;;;13.91;60.72;102077.25;10492162;28;20369;-78
2022/05/14 21:27:13;;;;;;;;;;;;;;;13.76;61.50;102075.03;10494637;28;19993;-78
2022/05/14 21:32:14;;;;;;;;;;;;;;;13.62;61.30;102078.06;10493219;28;19966;-80
2022/05/14 21:42:47;;;;;;;;;;;;;;;13.57;61.87;102082.22;10497614;28;20379;-79
2022/05/14 21:47:49;;;;;;;;;;;;;;;13.92;59.71;102085.06;10502350;28;19920;-79
2022/05/14 21:52:52;;;;;;;;;;;;;;;14.00;59.86;102081.81;10497900;28;20398;-80
2022/05/14 21:57:57;;;;;;;;;;;;;;;13.99;60.09;102080.06;10500173;28;19965;-80
2022/05/14 22:02:59;;;;;;;;;;;;;;;14.11;59.56;102073.53;10513407;28;20440;-80
2022/05/14 22:08:01;;;;;;;;;;;;;;;13.95;60.15;102079.97;10512449;28;19920;-80
2022/05/14 22:13:04;;;;;;;;;;;;;;;14.16;59.23;102084.03;10499194;28;19944;-80
2022/05/14 22:18:06;;;;;;;;;;;;;;;14.21;59.57;102085.06;10496793;28;19921;-80
2022/05/14 22:23:08;;;;;;;;;;;;;;;13.79;60.94;102088.97;10498179;28;19932;-80
2022/05/14 22:28:09;;;;;;;;;;;;;;;13.77;61.47;102081.97;10479880;28;19920;-79
2022/05/14 22:33:11;;;;;;;;;;;;;;;13.90;60.79;102086.69;10486581;28;19926;-79
2022/05/14 22:38:13;;;;;;;;;;;;;;;13.68;61.65;102089.44;10479820;28;19928;-80
2022/05/14 22:43:15;;;;;;;;;;;;;;;13.39;62.81;102087.69;10458003;28;19929;-79
2022/05/14 22:48:16;;;;;;;;;;;;;;;13.57;61.99;102084.81;10462552;28;20277;-80
2022/05/14 22:53:18;;;;;;;;;;;;;;;13.81;60.75;102078.66;10496678;28;19920;-80
2022/05/14 22:58:24;;;;;;;;;;;;;;;13.78;60.86;102086.34;10473358;28;20280;-80
2022/05/14 23:03:26;;;;;;;;;;;;;;;13.74;61.29;102094.81;10459906;28;19925;-80
2022/05/14 23:08:29;;;;;;;;;;;;;;;13.76;61.00;102086.28;10461643;28;19921;-80
2022/05/14 23:13:31;;;;;;;;;;;;;;;13.75;60.90;102083.63;10463846;28;19932;-79
2022/05/14 23:18:32;;;;;;;;;;;;;;;13.36;63.11;102086.66;10464517;28;19920;-80
2022/05/14 23:23:34;;;;;;;;;;;;;;;13.48;62.62;102087.09;10463311;28;19933;-80
2022/05/14 23:28:37;;;;;;;;;;;;;;;13.42;62.44;102081.72;10481090;28;20021;-79
2022/05/14 23:33:39;;;;;;;;;;;;;;;13.33;62.62;102083.13;10501085;28;19920;-80
2022/05/14 23:38:40;;;;;;;;;;;;;;;13.38;62.61;102085.00;10503777;28;19920;-80
2022/05/14 23:43:43;;;;;;;;;;;;;;;13.32;62.88;102081.38;10500397;28;19924;-79
2022/05/14 23:48:45;;;;;;;;;;;;;;;13.31;63.16;102079.63;10483050;28;19947;-80
2022/05/14 23:53:47;;;;;;;;;;;;;;;13.08;63.75;102083.13;10498454;28;20016;-80
